sensor_id;sensor_type;location;lat;lon;timestamp;P1;durP1;ratioP1;P2;durP2;ratioP2
31818;SDS011;18384;48.860;9.188;2022-10-31T00:00:59;18.17;;;5.85;;
31818;SDS011;18384;48.860;9.188;2022-10-31T00:03:26;20.35;;;6.70;;
31818;SDS011;18384;48.860;9.188;2022-10-31T00:05:52;15.18;;;5.93;;
31818;SDS011;18384;48.860;9.188;2022-10-31T00:08:18;18.60;;;6.10;;
31818;SDS011;18384;48.860;9.188;2022-10-31T00:10:45;13.65;;;5.95;;
31818;SDS011;18384;48.860;9.188;2022-10-31T00:13:12;14.85;;;6.35;;
31818;SDS011;18384;48.860;9.188;2022-10-31T00:15:40;26.12;;;10.75;;
31818;SDS011;18384;48.860;9.188;2022-10-31T00:18:07;17.75;;;8.23;;
31818;SDS011;18384;48.860;9.188;2022-10-31T00:20:34;24.52;;;7.28;;
31818;SDS011;18384;48.860;9.188;2022-10-31T00:23:01;19.30;;;6.72;;
31818;SDS011;18384;48.860;9.188;2022-10-31T00:25:28;17.15;;;6.70;;
31818;SDS011;18384;48.860;9.188;2022-10-31T00:28:03;19.90;;;7.80;;
31818;SDS011;18384;48.860;9.188;2022-10-31T00:30:32;26.73;;;6.78;;
31818;SDS011;18384;48.860;9.188;2022-10-31T00:32:59;15.30;;;7.53;;
31818;SDS011;18384;48.860;9.188;2022-10-31T00:35:25;23.08;;;6.72;;
31818;SDS011;18384;48.860;9.188;2022-10-31T00:37:51;18.52;;;7.05;;
31818;SDS011;18384;48.860;9.188;2022-10-31T00:40:18;19.62;;;6.60;;
31818;SDS011;18384;48.860;9.188;2022-10-31T00:42:44;14.13;;;6.78;;
31818;SDS011;18384;48.860;9.188;2022-10-31T00:45:10;19.15;;;8.73;;
31818;SDS011;18384;48.860;9.188;2022-10-31T00:47:36;19.12;;;7.95;;
31818;SDS011;18384;48.860;9.188;2022-10-31T00:50:03;16.02;;;7.15;;
31818;SDS011;18384;48.860;9.188;2022-10-31T00:52:31;21.95;;;7.03;;
31818;SDS011;18384;48.860;9.188;2022-10-31T00:54:57;17.80;;;7.30;;
31818;SDS011;18384;48.860;9.188;2022-10-31T00:57:23;24.33;;;7.07;;
31818;SDS011;18384;48.860;9.188;2022-10-31T00:59:49;17.55;;;7.57;;
31818;SDS011;18384;48.860;9.188;2022-10-31T01:02:15;16.62;;;7.65;;
31818;SDS011;18384;48.860;9.188;2022-10-31T01:04:42;14.82;;;7.20;;
31818;SDS011;18384;48.860;9.188;2022-10-31T01:07:08;28.38;;;8.32;;
31818;SDS011;18384;48.860;9.188;2022-10-31T01:09:36;18.80;;;8.13;;
31818;SDS011;18384;48.860;9.188;2022-10-31T01:12:02;18.17;;;6.97;;
31818;SDS011;18384;48.860;9.188;2022-10-31T01:14:29;15.68;;;7.28;;
31818;SDS011;18384;48.860;9.188;2022-10-31T01:16:55;18.95;;;7.22;;
31818;SDS011;18384;48.860;9.188;2022-10-31T01:19:21;18.35;;;6.93;;
31818;SDS011;18384;48.860;9.188;2022-10-31T01:21:47;17.83;;;6.57;;
31818;SDS011;18384;48.860;9.188;2022-10-31T01:24:13;19.55;;;6.80;;
31818;SDS011;18384;48.860;9.188;2022-10-31T01:26:39;18.58;;;7.97;;
31818;SDS011;18384;48.860;9.188;2022-10-31T01:29:06;15.60;;;7.20;;
31818;SDS011;18384;48.860;9.188;2022-10-31T01:31:34;19.77;;;7.80;;
31818;SDS011;18384;48.860;9.188;2022-10-31T01:34:03;13.38;;;7.07;;
31818;SDS011;18384;48.860;9.188;2022-10-31T01:36:36;21.85;;;6.57;;
31818;SDS011;18384;48.860;9.188;2022-10-31T01:39:07;15.85;;;7.62;;
31818;SDS011;18384;48.860;9.188;2022-10-31T01:41:40;15.80;;;6.93;;
31818;SDS011;18384;48.860;9.188;2022-10-31T01:48:19;16.87;;;7.53;;
31818;SDS011;18384;48.860;9.188;2022-10-31T01:50:49;13.10;;;6.80;;
31818;SDS011;18384;48.860;9.188;2022-10-31T01:53:19;21.85;;;7.37;;
31818;SDS011;18384;48.860;9.188;2022-10-31T01:55:47;19.83;;;6.87;;
31818;SDS011;18384;48.860;9.188;2022-10-31T01:58:14;16.95;;;7.37;;
31818;SDS011;18384;48.860;9.188;2022-10-31T02:00:48;17.87;;;8.80;;
31818;SDS011;18384;48.860;9.188;2022-10-31T02:03:18;25.67;;;7.18;;
31818;SDS011;18384;48.860;9.188;2022-10-31T02:05:47;16.77;;;7.30;;
31818;SDS011;18384;48.860;9.188;2022-10-31T02:08:26;17.55;;;8.00;;
31818;SDS011;18384;48.860;9.188;2022-10-31T02:10:59;12.37;;;7.05;;
31818;SDS011;18384;48.860;9.188;2022-10-31T02:13:27;21.87;;;7.07;;
31818;SDS011;18384;48.860;9.188;2022-10-31T02:15:55;16.83;;;6.45;;
31818;SDS011;18384;48.860;9.188;2022-10-31T02:18:24;12.25;;;6.30;;
31818;SDS011;18384;48.860;9.188;2022-10-31T02:21:39;23.05;;;6.57;;
31818;SDS011;18384;48.860;9.188;2022-10-31T02:24:42;19.52;;;7.15;;
31818;SDS011;18384;48.860;9.188;2022-10-31T02:35:39;20.37;;;6.82;;
31818;SDS011;18384;48.860;9.188;2022-10-31T02:41:28;14.52;;;6.65;;
31818;SDS011;18384;48.860;9.188;2022-10-31T02:47:57;14.90;;;6.10;;
31818;SDS011;18384;48.860;9.188;2022-10-31T02:50:30;21.48;;;7.32;;
31818;SDS011;18384;48.860;9.188;2022-10-31T02:53:00;16.35;;;6.78;;
31818;SDS011;18384;48.860;9.188;2022-10-31T02:59:29;13.68;;;7.22;;
31818;SDS011;18384;48.860;9.188;2022-10-31T03:02:43;16.48;;;6.40;;
31818;SDS011;18384;48.860;9.188;2022-10-31T03:07:05;16.98;;;5.47;;
31818;SDS011;18384;48.860;9.188;2022-10-31T03:09:48;11.10;;;5.85;;
31818;SDS011;18384;48.860;9.188;2022-10-31T03:13:57;15.27;;;6.53;;
31818;SDS011;18384;48.860;9.188;2022-10-31T03:16:47;18.98;;;5.50;;
31818;SDS011;18384;48.860;9.188;2022-10-31T03:19:26;15.18;;;6.20;;
31818;SDS011;18384;48.860;9.188;2022-10-31T03:22:02;21.15;;;6.22;;
31818;SDS011;18384;48.860;9.188;2022-10-31T03:24:38;13.23;;;5.45;;
31818;SDS011;18384;48.860;9.188;2022-10-31T03:27:06;14.30;;;5.53;;
31818;SDS011;18384;48.860;9.188;2022-10-31T03:29:36;14.95;;;6.32;;
31818;SDS011;18384;48.860;9.188;2022-10-31T03:32:10;16.75;;;5.62;;
31818;SDS011;18384;48.860;9.188;2022-10-31T03:34:42;20.00;;;6.05;;
31818;SDS011;18384;48.860;9.188;2022-10-31T03:37:11;15.77;;;5.95;;
31818;SDS011;18384;48.860;9.188;2022-10-31T03:39:42;13.52;;;5.32;;
31818;SDS011;18384;48.860;9.188;2022-10-31T03:42:11;15.38;;;5.87;;
31818;SDS011;18384;48.860;9.188;2022-10-31T03:44:44;17.30;;;5.22;;
31818;SDS011;18384;48.860;9.188;2022-10-31T03:47:21;15.02;;;6.20;;
31818;SDS011;18384;48.860;9.188;2022-10-31T03:49:47;12.70;;;5.85;;
31818;SDS011;18384;48.860;9.188;2022-10-31T03:52:25;12.50;;;6.95;;
31818;SDS011;18384;48.860;9.188;2022-10-31T03:55:18;19.85;;;6.25;;
31818;SDS011;18384;48.860;9.188;2022-10-31T04:00:54;15.82;;;6.20;;
31818;SDS011;18384;48.860;9.188;2022-10-31T04:03:24;20.95;;;6.30;;
31818;SDS011;18384;48.860;9.188;2022-10-31T04:05:53;12.63;;;5.75;;
31818;SDS011;18384;48.860;9.188;2022-10-31T04:08:23;10.02;;;5.47;;
31818;SDS011;18384;48.860;9.188;2022-10-31T04:10:54;20.98;;;6.22;;
31818;SDS011;18384;48.860;9.188;2022-10-31T04:13:25;15.30;;;6.28;;
31818;SDS011;18384;48.860;9.188;2022-10-31T04:15:55;13.95;;;6.22;;
31818;SDS011;18384;48.860;9.188;2022-10-31T04:18:25;15.75;;;6.40;;
31818;SDS011;18384;48.860;9.188;2022-10-31T04:21:01;13.95;;;6.00;;
31818;SDS011;18384;48.860;9.188;2022-10-31T04:23:33;21.55;;;6.68;;
31818;SDS011;18384;48.860;9.188;2022-10-31T04:26:00;22.30;;;6.22;;
31818;SDS011;18384;48.860;9.188;2022-10-31T04:28:27;20.73;;;7.47;;
31818;SDS011;18384;48.860;9.188;2022-10-31T04:30:53;16.73;;;7.32;;
31818;SDS011;18384;48.860;9.188;2022-10-31T04:33:19;13.82;;;6.40;;
31818;SDS011;18384;48.860;9.188;2022-10-31T04:35:45;26.48;;;5.93;;
31818;SDS011;18384;48.860;9.188;2022-10-31T04:38:13;18.80;;;6.70;;
31818;SDS011;18384;48.860;9.188;2022-10-31T04:40:39;14.13;;;6.20;;
31818;SDS011;18384;48.860;9.188;2022-10-31T04:43:05;14.48;;;5.82;;
31818;SDS011;18384;48.860;9.188;2022-10-31T04:45:31;13.35;;;6.10;;
31818;SDS011;18384;48.860;9.188;2022-10-31T04:47:57;10.00;;;6.20;;
31818;SDS011;18384;48.860;9.188;2022-10-31T04:50:23;20.30;;;6.30;;
31818;SDS011;18384;48.860;9.188;2022-10-31T04:52:49;15.93;;;6.07;;
31818;SDS011;18384;48.860;9.188;2022-10-31T04:55:15;18.00;;;6.05;;
31818;SDS011;18384;48.860;9.188;2022-10-31T04:57:42;16.85;;;6.80;;
31818;SDS011;18384;48.860;9.188;2022-10-31T05:00:13;19.60;;;6.22;;
31818;SDS011;18384;48.860;9.188;2022-10-31T05:02:52;17.87;;;6.03;;
31818;SDS011;18384;48.860;9.188;2022-10-31T05:05:21;15.90;;;5.97;;
31818;SDS011;18384;48.860;9.188;2022-10-31T05:07:50;15.85;;;6.62;;
31818;SDS011;18384;48.860;9.188;2022-10-31T05:10:18;14.00;;;6.15;;
31818;SDS011;18384;48.860;9.188;2022-10-31T05:12:52;23.45;;;6.28;;
31818;SDS011;18384;48.860;9.188;2022-10-31T05:15:21;19.08;;;7.22;;
31818;SDS011;18384;48.860;9.188;2022-10-31T05:17:49;14.32;;;6.43;;
31818;SDS011;18384;48.860;9.188;2022-10-31T05:20:16;19.58;;;6.18;;
31818;SDS011;18384;48.860;9.188;2022-10-31T05:22:54;14.60;;;6.07;;
31818;SDS011;18384;48.860;9.188;2022-10-31T05:27:50;12.00;;;6.28;;
31818;SDS011;18384;48.860;9.188;2022-10-31T05:30:18;17.08;;;5.97;;
31818;SDS011;18384;48.860;9.188;2022-10-31T05:32:51;21.12;;;6.55;;
31818;SDS011;18384;48.860;9.188;2022-10-31T05:35:18;15.93;;;5.60;;
31818;SDS011;18384;48.860;9.188;2022-10-31T05:37:49;13.52;;;5.78;;
31818;SDS011;18384;48.860;9.188;2022-10-31T05:40:16;16.92;;;6.37;;
31818;SDS011;18384;48.860;9.188;2022-10-31T05:42:44;14.57;;;6.72;;
31818;SDS011;18384;48.860;9.188;2022-10-31T05:45:12;11.68;;;5.78;;
31818;SDS011;18384;48.860;9.188;2022-10-31T05:47:41;10.95;;;5.65;;
31818;SDS011;18384;48.860;9.188;2022-10-31T05:50:08;13.57;;;5.93;;
31818;SDS011;18384;48.860;9.188;2022-10-31T05:52:35;15.65;;;6.28;;
31818;SDS011;18384;48.860;9.188;2022-10-31T05:55:01;17.87;;;5.82;;
31818;SDS011;18384;48.860;9.188;2022-10-31T05:57:28;17.02;;;5.68;;
31818;SDS011;18384;48.860;9.188;2022-10-31T05:59:59;14.48;;;5.32;;
31818;SDS011;18384;48.860;9.188;2022-10-31T06:04:51;13.55;;;5.50;;
31818;SDS011;18384;48.860;9.188;2022-10-31T06:07:18;16.25;;;7.62;;
31818;SDS011;18384;48.860;9.188;2022-10-31T06:09:44;12.48;;;5.43;;
31818;SDS011;18384;48.860;9.188;2022-10-31T06:12:10;18.20;;;5.82;;
31818;SDS011;18384;48.860;9.188;2022-10-31T06:14:36;13.65;;;5.28;;
31818;SDS011;18384;48.860;9.188;2022-10-31T06:17:02;13.48;;;5.40;;
31818;SDS011;18384;48.860;9.188;2022-10-31T06:19:28;15.45;;;6.05;;
31818;SDS011;18384;48.860;9.188;2022-10-31T06:21:54;12.40;;;5.03;;
31818;SDS011;18384;48.860;9.188;2022-10-31T06:24:20;13.00;;;5.62;;
31818;SDS011;18384;48.860;9.188;2022-10-31T06:26:46;16.73;;;5.95;;
31818;SDS011;18384;48.860;9.188;2022-10-31T06:29:13;11.32;;;5.12;;
31818;SDS011;18384;48.860;9.188;2022-10-31T06:31:39;15.38;;;5.53;;
31818;SDS011;18384;48.860;9.188;2022-10-31T06:34:05;18.50;;;5.20;;
31818;SDS011;18384;48.860;9.188;2022-10-31T06:36:31;14.82;;;5.65;;
31818;SDS011;18384;48.860;9.188;2022-10-31T06:38:57;14.57;;;5.22;;
31818;SDS011;18384;48.860;9.188;2022-10-31T06:41:23;16.00;;;6.53;;
31818;SDS011;18384;48.860;9.188;2022-10-31T06:43:49;16.73;;;5.60;;
31818;SDS011;18384;48.860;9.188;2022-10-31T06:46:15;16.02;;;5.90;;
31818;SDS011;18384;48.860;9.188;2022-10-31T06:48:41;18.90;;;6.20;;
31818;SDS011;18384;48.860;9.188;2022-10-31T06:51:08;15.68;;;7.53;;
31818;SDS011;18384;48.860;9.188;2022-10-31T06:53:34;14.93;;;7.10;;
31818;SDS011;18384;48.860;9.188;2022-10-31T06:56:00;13.25;;;5.32;;
31818;SDS011;18384;48.860;9.188;2022-10-31T06:58:26;15.80;;;5.05;;
31818;SDS011;18384;48.860;9.188;2022-10-31T07:00:52;11.80;;;5.47;;
31818;SDS011;18384;48.860;9.188;2022-10-31T07:03:19;18.62;;;5.70;;
31818;SDS011;18384;48.860;9.188;2022-10-31T07:05:45;12.10;;;5.30;;
31818;SDS011;18384;48.860;9.188;2022-10-31T07:08:12;17.58;;;5.90;;
31818;SDS011;18384;48.860;9.188;2022-10-31T07:10:39;10.52;;;5.28;;
31818;SDS011;18384;48.860;9.188;2022-10-31T07:13:13;14.93;;;5.40;;
31818;SDS011;18384;48.860;9.188;2022-10-31T07:15:40;14.00;;;5.90;;
31818;SDS011;18384;48.860;9.188;2022-10-31T07:18:09;15.20;;;5.78;;
31818;SDS011;18384;48.860;9.188;2022-10-31T07:20:37;11.35;;;5.43;;
31818;SDS011;18384;48.860;9.188;2022-10-31T07:25:30;16.33;;;4.87;;
31818;SDS011;18384;48.860;9.188;2022-10-31T07:27:56;17.58;;;6.50;;
31818;SDS011;18384;48.860;9.188;2022-10-31T07:30:22;20.50;;;6.43;;
31818;SDS011;18384;48.860;9.188;2022-10-31T07:32:48;14.80;;;6.05;;
31818;SDS011;18384;48.860;9.188;2022-10-31T07:35:17;15.10;;;5.80;;
31818;SDS011;18384;48.860;9.188;2022-10-31T07:37:45;10.23;;;5.50;;
31818;SDS011;18384;48.860;9.188;2022-10-31T07:40:12;12.15;;;5.43;;
31818;SDS011;18384;48.860;9.188;2022-10-31T07:42:39;13.30;;;5.32;;
31818;SDS011;18384;48.860;9.188;2022-10-31T07:45:09;23.95;;;6.78;;
31818;SDS011;18384;48.860;9.188;2022-10-31T07:47:38;14.65;;;5.50;;
31818;SDS011;18384;48.860;9.188;2022-10-31T07:50:10;16.12;;;5.18;;
31818;SDS011;18384;48.860;9.188;2022-10-31T07:52:42;10.23;;;5.10;;
31818;SDS011;18384;48.860;9.188;2022-10-31T07:55:08;15.05;;;5.72;;
31818;SDS011;18384;48.860;9.188;2022-10-31T07:57:35;9.63;;;5.70;;
31818;SDS011;18384;48.860;9.188;2022-10-31T08:00:05;13.65;;;5.82;;
31818;SDS011;18384;48.860;9.188;2022-10-31T08:02:34;19.52;;;4.93;;
31818;SDS011;18384;48.860;9.188;2022-10-31T08:07:27;13.57;;;5.25;;
31818;SDS011;18384;48.860;9.188;2022-10-31T08:09:54;12.15;;;5.30;;
31818;SDS011;18384;48.860;9.188;2022-10-31T08:12:21;16.95;;;4.90;;
31818;SDS011;18384;48.860;9.188;2022-10-31T08:14:47;13.52;;;5.43;;
31818;SDS011;18384;48.860;9.188;2022-10-31T08:17:13;11.20;;;5.93;;
31818;SDS011;18384;48.860;9.188;2022-10-31T08:19:39;13.13;;;4.65;;
31818;SDS011;18384;48.860;9.188;2022-10-31T08:22:05;15.32;;;5.40;;
31818;SDS011;18384;48.860;9.188;2022-10-31T08:24:31;14.48;;;6.20;;
31818;SDS011;18384;48.860;9.188;2022-10-31T08:26:57;19.27;;;5.57;;
31818;SDS011;18384;48.860;9.188;2022-10-31T08:29:24;13.18;;;5.22;;
31818;SDS011;18384;48.860;9.188;2022-10-31T08:31:50;15.85;;;5.28;;
31818;SDS011;18384;48.860;9.188;2022-10-31T08:34:16;15.50;;;4.75;;
31818;SDS011;18384;48.860;9.188;2022-10-31T08:36:42;13.95;;;5.62;;
31818;SDS011;18384;48.860;9.188;2022-10-31T08:39:11;12.13;;;5.25;;
31818;SDS011;18384;48.860;9.188;2022-10-31T08:41:37;18.00;;;5.20;;
31818;SDS011;18384;48.860;9.188;2022-10-31T08:44:03;16.45;;;5.90;;
31818;SDS011;18384;48.860;9.188;2022-10-31T08:48:55;16.17;;;4.78;;
31818;SDS011;18384;48.860;9.188;2022-10-31T08:51:21;14.63;;;5.30;;
31818;SDS011;18384;48.860;9.188;2022-10-31T08:53:47;14.07;;;5.28;;
31818;SDS011;18384;48.860;9.188;2022-10-31T08:56:14;13.93;;;5.57;;
31818;SDS011;18384;48.860;9.188;2022-10-31T08:58:40;16.48;;;5.25;;
31818;SDS011;18384;48.860;9.188;2022-10-31T09:01:06;16.20;;;6.10;;
31818;SDS011;18384;48.860;9.188;2022-10-31T09:03:32;19.52;;;5.90;;
31818;SDS011;18384;48.860;9.188;2022-10-31T09:06:00;10.90;;;4.53;;
31818;SDS011;18384;48.860;9.188;2022-10-31T09:08:31;16.83;;;5.90;;
31818;SDS011;18384;48.860;9.188;2022-10-31T09:10:58;14.73;;;5.47;;
31818;SDS011;18384;48.860;9.188;2022-10-31T09:13:24;22.10;;;6.80;;
31818;SDS011;18384;48.860;9.188;2022-10-31T09:15:51;22.05;;;5.43;;
31818;SDS011;18384;48.860;9.188;2022-10-31T09:18:19;14.30;;;5.70;;
31818;SDS011;18384;48.860;9.188;2022-10-31T09:20:47;21.27;;;6.93;;
31818;SDS011;18384;48.860;9.188;2022-10-31T09:23:19;21.95;;;5.57;;
31818;SDS011;18384;48.860;9.188;2022-10-31T09:25:48;22.17;;;5.43;;
31818;SDS011;18384;48.860;9.188;2022-10-31T09:28:18;15.00;;;5.47;;
31818;SDS011;18384;48.860;9.188;2022-10-31T09:30:47;16.85;;;5.55;;
31818;SDS011;18384;48.860;9.188;2022-10-31T09:33:15;16.80;;;6.00;;
31818;SDS011;18384;48.860;9.188;2022-10-31T09:35:42;17.62;;;5.62;;
31818;SDS011;18384;48.860;9.188;2022-10-31T09:38:10;15.20;;;6.03;;
31818;SDS011;18384;48.860;9.188;2022-10-31T09:40:47;12.93;;;5.40;;
31818;SDS011;18384;48.860;9.188;2022-10-31T09:53:37;22.70;;;5.57;;
31818;SDS011;18384;48.860;9.188;2022-10-31T09:56:10;14.23;;;5.47;;
31818;SDS011;18384;48.860;9.188;2022-10-31T09:58:43;22.20;;;5.60;;
31818;SDS011;18384;48.860;9.188;2022-10-31T10:01:19;20.52;;;6.15;;
31818;SDS011;18384;48.860;9.188;2022-10-31T10:08:46;21.27;;;6.20;;
31818;SDS011;18384;48.860;9.188;2022-10-31T10:14:24;20.88;;;5.82;;
31818;SDS011;18384;48.860;9.188;2022-10-31T10:18:53;20.23;;;6.00;;
31818;SDS011;18384;48.860;9.188;2022-10-31T10:22:10;24.02;;;7.10;;
31818;SDS011;18384;48.860;9.188;2022-10-31T10:25:14;13.55;;;5.60;;
31818;SDS011;18384;48.860;9.188;2022-10-31T10:28:03;16.60;;;5.72;;
31818;SDS011;18384;48.860;9.188;2022-10-31T10:31:12;24.67;;;6.30;;
31818;SDS011;18384;48.860;9.188;2022-10-31T10:33:55;21.27;;;5.85;;
31818;SDS011;18384;48.860;9.188;2022-10-31T10:47:50;13.80;;;5.62;;
31818;SDS011;18384;48.860;9.188;2022-10-31T10:52:10;10.65;;;5.50;;
31818;SDS011;18384;48.860;9.188;2022-10-31T10:55:27;15.98;;;5.47;;
31818;SDS011;18384;48.860;9.188;2022-10-31T10:58:12;20.88;;;5.95;;
31818;SDS011;18384;48.860;9.188;2022-10-31T11:00:39;21.33;;;5.65;;
31818;SDS011;18384;48.860;9.188;2022-10-31T11:03:15;15.52;;;5.60;;
31818;SDS011;18384;48.860;9.188;2022-10-31T11:05:50;17.50;;;5.65;;
31818;SDS011;18384;48.860;9.188;2022-10-31T11:08:33;16.85;;;5.97;;
31818;SDS011;18384;48.860;9.188;2022-10-31T11:11:04;22.50;;;6.90;;
31818;SDS011;18384;48.860;9.188;2022-10-31T11:13:53;17.42;;;5.15;;
31818;SDS011;18384;48.860;9.188;2022-10-31T11:16:39;14.32;;;5.45;;
31818;SDS011;18384;48.860;9.188;2022-10-31T11:19:20;15.20;;;5.72;;
31818;SDS011;18384;48.860;9.188;2022-10-31T11:21:52;20.58;;;5.53;;
31818;SDS011;18384;48.860;9.188;2022-10-31T11:24:20;12.95;;;5.18;;
31818;SDS011;18384;48.860;9.188;2022-10-31T11:26:51;15.80;;;5.00;;
31818;SDS011;18384;48.860;9.188;2022-10-31T11:29:32;16.23;;;6.00;;
31818;SDS011;18384;48.860;9.188;2022-10-31T11:31:58;15.55;;;4.80;;
31818;SDS011;18384;48.860;9.188;2022-10-31T11:34:35;12.68;;;4.60;;
31818;SDS011;18384;48.860;9.188;2022-10-31T11:37:12;17.58;;;5.05;;
31818;SDS011;18384;48.860;9.188;2022-10-31T11:39:47;16.45;;;5.18;;
31818;SDS011;18384;48.860;9.188;2022-10-31T11:42:23;22.80;;;6.03;;
31818;SDS011;18384;48.860;9.188;2022-10-31T11:44:53;16.15;;;5.60;;
31818;SDS011;18384;48.860;9.188;2022-10-31T11:47:23;17.83;;;4.85;;
31818;SDS011;18384;48.860;9.188;2022-10-31T11:49:53;23.15;;;5.68;;
31818;SDS011;18384;48.860;9.188;2022-10-31T11:52:25;16.92;;;5.62;;
31818;SDS011;18384;48.860;9.188;2022-10-31T11:54:59;26.50;;;5.60;;
31818;SDS011;18384;48.860;9.188;2022-10-31T11:57:44;11.80;;;5.25;;
31818;SDS011;18384;48.860;9.188;2022-10-31T12:06:34;13.43;;;5.75;;
31818;SDS011;18384;48.860;9.188;2022-10-31T12:09:27;15.05;;;4.87;;
31818;SDS011;18384;48.860;9.188;2022-10-31T12:14:46;15.23;;;4.97;;
31818;SDS011;18384;48.860;9.188;2022-10-31T12:19:05;15.63;;;5.18;;
31818;SDS011;18384;48.860;9.188;2022-10-31T12:35:08;12.63;;;4.95;;
31818;SDS011;18384;48.860;9.188;2022-10-31T12:39:33;14.90;;;4.43;;
31818;SDS011;18384;48.860;9.188;2022-10-31T12:51:39;13.27;;;4.50;;
31818;SDS011;18384;48.860;9.188;2022-10-31T13:02:00;11.02;;;4.70;;
31818;SDS011;18384;48.860;9.188;2022-10-31T13:04:53;13.48;;;4.75;;
31818;SDS011;18384;48.860;9.188;2022-10-31T13:08:13;15.65;;;4.70;;
31818;SDS011;18384;48.860;9.188;2022-10-31T13:10:49;17.20;;;4.90;;
31818;SDS011;18384;48.860;9.188;2022-10-31T13:17:03;11.05;;;4.37;;
31818;SDS011;18384;48.860;9.188;2022-10-31T13:19:38;15.75;;;4.45;;
31818;SDS011;18384;48.860;9.188;2022-10-31T13:22:22;13.80;;;4.20;;
31818;SDS011;18384;48.860;9.188;2022-10-31T13:25:11;18.48;;;5.05;;
31818;SDS011;18384;48.860;9.188;2022-10-31T13:33:34;17.00;;;5.47;;
31818;SDS011;18384;48.860;9.188;2022-10-31T13:36:24;16.00;;;6.22;;
31818;SDS011;18384;48.860;9.188;2022-10-31T13:47:03;11.85;;;4.62;;
31818;SDS011;18384;48.860;9.188;2022-10-31T13:50:05;17.12;;;4.30;;
31818;SDS011;18384;48.860;9.188;2022-10-31T13:52:49;12.40;;;3.97;;
31818;SDS011;18384;48.860;9.188;2022-10-31T13:58:03;12.37;;;4.03;;
31818;SDS011;18384;48.860;9.188;2022-10-31T14:00:58;10.35;;;4.62;;
31818;SDS011;18384;48.860;9.188;2022-10-31T14:04:33;13.13;;;4.18;;
31818;SDS011;18384;48.860;9.188;2022-10-31T14:07:12;9.95;;;4.45;;
31818;SDS011;18384;48.860;9.188;2022-10-31T14:09:52;19.27;;;4.20;;
31818;SDS011;18384;48.860;9.188;2022-10-31T14:12:34;16.77;;;4.43;;
31818;SDS011;18384;48.860;9.188;2022-10-31T14:15:17;17.92;;;4.70;;
31818;SDS011;18384;48.860;9.188;2022-10-31T14:17:50;15.93;;;5.78;;
31818;SDS011;18384;48.860;9.188;2022-10-31T14:20:39;17.90;;;5.30;;
31818;SDS011;18384;48.860;9.188;2022-10-31T14:26:19;10.10;;;4.18;;
31818;SDS011;18384;48.860;9.188;2022-10-31T14:32:42;10.00;;;4.10;;
31818;SDS011;18384;48.860;9.188;2022-10-31T14:35:09;18.20;;;4.22;;
31818;SDS011;18384;48.860;9.188;2022-10-31T14:38:30;11.88;;;3.83;;
31818;SDS011;18384;48.860;9.188;2022-10-31T14:41:32;15.90;;;5.28;;
31818;SDS011;18384;48.860;9.188;2022-10-31T14:44:42;10.15;;;4.10;;
31818;SDS011;18384;48.860;9.188;2022-10-31T14:53:00;12.27;;;4.20;;
31818;SDS011;18384;48.860;9.188;2022-10-31T14:55:29;13.90;;;4.82;;
31818;SDS011;18384;48.860;9.188;2022-10-31T14:58:04;13.43;;;5.90;;
31818;SDS011;18384;48.860;9.188;2022-10-31T15:00:32;15.90;;;5.12;;
31818;SDS011;18384;48.860;9.188;2022-10-31T15:03:04;18.27;;;5.75;;
31818;SDS011;18384;48.860;9.188;2022-10-31T15:05:44;15.75;;;5.78;;
31818;SDS011;18384;48.860;9.188;2022-10-31T15:08:29;13.27;;;4.70;;
31818;SDS011;18384;48.860;9.188;2022-10-31T15:11:17;17.20;;;5.00;;
31818;SDS011;18384;48.860;9.188;2022-10-31T15:13:55;12.57;;;5.07;;
31818;SDS011;18384;48.860;9.188;2022-10-31T15:16:28;12.30;;;6.28;;
31818;SDS011;18384;48.860;9.188;2022-10-31T15:19:03;14.25;;;5.90;;
31818;SDS011;18384;48.860;9.188;2022-10-31T15:21:32;13.45;;;5.20;;
31818;SDS011;18384;48.860;9.188;2022-10-31T15:24:00;13.57;;;5.47;;
31818;SDS011;18384;48.860;9.188;2022-10-31T15:26:38;16.25;;;6.25;;
31818;SDS011;18384;48.860;9.188;2022-10-31T15:29:10;10.18;;;5.25;;
31818;SDS011;18384;48.860;9.188;2022-10-31T15:31:49;22.08;;;6.10;;
31818;SDS011;18384;48.860;9.188;2022-10-31T15:37:24;15.32;;;5.53;;
31818;SDS011;18384;48.860;9.188;2022-10-31T15:39:52;15.43;;;6.37;;
31818;SDS011;18384;48.860;9.188;2022-10-31T15:42:19;16.10;;;5.57;;
31818;SDS011;18384;48.860;9.188;2022-10-31T15:45:03;15.27;;;6.15;;
31818;SDS011;18384;48.860;9.188;2022-10-31T15:47:54;13.20;;;5.72;;
31818;SDS011;18384;48.860;9.188;2022-10-31T15:50:46;19.25;;;6.78;;
31818;SDS011;18384;48.860;9.188;2022-10-31T15:53:17;16.33;;;6.43;;
31818;SDS011;18384;48.860;9.188;2022-10-31T15:55:54;19.45;;;7.90;;
31818;SDS011;18384;48.860;9.188;2022-10-31T15:58:26;18.95;;;7.07;;
31818;SDS011;18384;48.860;9.188;2022-10-31T16:01:01;19.45;;;6.95;;
31818;SDS011;18384;48.860;9.188;2022-10-31T16:03:30;17.15;;;6.87;;
31818;SDS011;18384;48.860;9.188;2022-10-31T16:05:59;18.58;;;6.10;;
31818;SDS011;18384;48.860;9.188;2022-10-31T16:08:33;19.37;;;7.15;;
31818;SDS011;18384;48.860;9.188;2022-10-31T16:14:51;13.62;;;6.78;;
31818;SDS011;18384;48.860;9.188;2022-10-31T16:17:20;16.98;;;7.10;;
31818;SDS011;18384;48.860;9.188;2022-10-31T16:19:53;22.33;;;7.80;;
31818;SDS011;18384;48.860;9.188;2022-10-31T16:22:27;24.33;;;7.75;;
31818;SDS011;18384;48.860;9.188;2022-10-31T16:28:03;18.27;;;7.95;;
31818;SDS011;18384;48.860;9.188;2022-10-31T16:30:49;14.85;;;7.70;;
31818;SDS011;18384;48.860;9.188;2022-10-31T16:33:32;18.98;;;8.63;;
31818;SDS011;18384;48.860;9.188;2022-10-31T16:36:13;17.02;;;8.35;;
31818;SDS011;18384;48.860;9.188;2022-10-31T16:39:03;20.40;;;9.10;;
31818;SDS011;18384;48.860;9.188;2022-10-31T16:41:29;24.15;;;9.88;;
31818;SDS011;18384;48.860;9.188;2022-10-31T16:44:05;28.35;;;9.57;;
31818;SDS011;18384;48.860;9.188;2022-10-31T16:46:43;23.75;;;10.52;;
31818;SDS011;18384;48.860;9.188;2022-10-31T16:51:36;26.98;;;9.48;;
31818;SDS011;18384;48.860;9.188;2022-10-31T16:54:02;21.55;;;9.35;;
31818;SDS011;18384;48.860;9.188;2022-10-31T16:56:32;24.52;;;10.07;;
31818;SDS011;18384;48.860;9.188;2022-10-31T16:59:01;20.80;;;9.35;;
31818;SDS011;18384;48.860;9.188;2022-10-31T17:01:31;24.55;;;8.98;;
31818;SDS011;18384;48.860;9.188;2022-10-31T17:03:57;21.67;;;8.27;;
31818;SDS011;18384;48.860;9.188;2022-10-31T17:06:23;27.23;;;9.35;;
31818;SDS011;18384;48.860;9.188;2022-10-31T17:08:52;28.05;;;11.15;;
31818;SDS011;18384;48.860;9.188;2022-10-31T17:11:21;32.63;;;11.27;;
31818;SDS011;18384;48.860;9.188;2022-10-31T17:13:50;17.35;;;9.20;;
31818;SDS011;18384;48.860;9.188;2022-10-31T17:16:18;26.75;;;9.40;;
31818;SDS011;18384;48.860;9.188;2022-10-31T17:18:44;23.50;;;8.55;;
31818;SDS011;18384;48.860;9.188;2022-10-31T17:21:14;25.90;;;9.25;;
31818;SDS011;18384;48.860;9.188;2022-10-31T17:23:50;17.37;;;8.65;;
31818;SDS011;18384;48.860;9.188;2022-10-31T17:26:17;22.73;;;9.60;;
31818;SDS011;18384;48.860;9.188;2022-10-31T17:28:43;17.77;;;8.88;;
31818;SDS011;18384;48.860;9.188;2022-10-31T17:31:20;21.52;;;10.48;;
31818;SDS011;18384;48.860;9.188;2022-10-31T17:33:49;20.62;;;9.98;;
31818;SDS011;18384;48.860;9.188;2022-10-31T17:36:15;24.85;;;10.07;;
31818;SDS011;18384;48.860;9.188;2022-10-31T17:38:41;29.25;;;11.43;;
31818;SDS011;18384;48.860;9.188;2022-10-31T17:41:07;30.52;;;12.27;;
31818;SDS011;18384;48.860;9.188;2022-10-31T17:43:33;40.28;;;17.10;;
31818;SDS011;18384;48.860;9.188;2022-10-31T17:46:00;29.20;;;15.85;;
31818;SDS011;18384;48.860;9.188;2022-10-31T17:48:27;36.75;;;15.00;;